sensor_id;sensor_type;location;lat;lon;timestamp;pressure;altitude;pressure_sealevel;temperature
49557;BMP280;35462;45.048;7.666;2022-12-29T00:02:04;99576.31;;;9.55
49557;BMP280;35462;45.048;7.666;2022-12-29T00:17:25;99565.66;;;9.41
49557;BMP280;35462;45.048;7.666;2022-12-29T00:32:41;99555.78;;;9.24
49557;BMP280;35462;45.048;7.666;2022-12-29T00:48:11;99544.75;;;9.15
49557;BMP280;35462;45.048;7.666;2022-12-29T01:03:27;99552.69;;;9.15
49557;BMP280;35462;45.048;7.666;2022-12-29T01:18:43;99549.66;;;9.13
49557;BMP280;35462;45.048;7.666;2022-12-29T01:33:59;99547.78;;;9.10
49557;BMP280;35462;45.048;7.666;2022-12-29T01:49:19;99556.44;;;9.07
49557;BMP280;35462;45.048;7.666;2022-12-29T02:04:40;99570.75;;;9.03
49557;BMP280;35462;45.048;7.666;2022-12-29T02:35:32;99542.72;;;8.91
49557;BMP280;35462;45.048;7.666;2022-12-29T02:50:55;99518.97;;;8.95
49557;BMP280;35462;45.048;7.666;2022-12-29T03:06:30;99504.97;;;8.87
49557;BMP280;35462;45.048;7.666;2022-12-29T03:37:34;99484.63;;;8.84
49557;BMP280;35462;45.048;7.666;2022-12-29T03:52:51;99486.81;;;8.79
49557;BMP280;35462;45.048;7.666;2022-12-29T04:08:07;99482.22;;;8.65
49557;BMP280;35462;45.048;7.666;2022-12-29T04:23:23;99474.63;;;8.60
49557;BMP280;35462;45.048;7.666;2022-12-29T04:38:39;99472.78;;;8.64
49557;BMP280;35462;45.048;7.666;2022-12-29T04:53:55;99467.09;;;8.62
49557;BMP280;35462;45.048;7.666;2022-12-29T05:09:13;99469.34;;;8.60
49557;BMP280;35462;45.048;7.666;2022-12-29T05:24:29;99469.28;;;8.50
49557;BMP280;35462;45.048;7.666;2022-12-29T05:39:46;99474.50;;;8.43
49557;BMP280;35462;45.048;7.666;2022-12-29T05:55:04;99477.78;;;8.30
49557;BMP280;35462;45.048;7.666;2022-12-29T06:10:23;99492.09;;;8.29
49557;BMP280;35462;45.048;7.666;2022-12-29T06:25:46;99488.13;;;8.05
49557;BMP280;35462;45.048;7.666;2022-12-29T06:41:03;99490.97;;;7.90
49557;BMP280;35462;45.048;7.666;2022-12-29T06:56:34;99494.59;;;7.78
49557;BMP280;35462;45.048;7.666;2022-12-29T07:11:49;99505.44;;;7.70
49557;BMP280;35462;45.048;7.666;2022-12-29T07:27:05;99509.28;;;7.76
49557;BMP280;35462;45.048;7.666;2022-12-29T07:42:21;99523.66;;;7.82
49557;BMP280;35462;45.048;7.666;2022-12-29T07:57:40;99525.25;;;7.90
49557;BMP280;35462;45.048;7.666;2022-12-29T08:12:57;99535.31;;;8.14
49557;BMP280;35462;45.048;7.666;2022-12-29T08:28:13;99530.25;;;8.38
49557;BMP280;35462;45.048;7.666;2022-12-29T08:43:29;99526.03;;;8.73
49557;BMP280;35462;45.048;7.666;2022-12-29T08:58:45;99522.59;;;9.30
49557;BMP280;35462;45.048;7.666;2022-12-29T09:14:01;99534.75;;;9.49
49557;BMP280;35462;45.048;7.666;2022-12-29T09:29:16;99529.50;;;9.59
49557;BMP280;35462;45.048;7.666;2022-12-29T09:44:45;99538.53;;;9.58
49557;BMP280;35462;45.048;7.666;2022-12-29T10:00:15;99544.28;;;9.70
49557;BMP280;35462;45.048;7.666;2022-12-29T10:15:54;99528.06;;;9.86
49557;BMP280;35462;45.048;7.666;2022-12-29T10:31:16;99514.50;;;10.01
49557;BMP280;35462;45.048;7.666;2022-12-29T10:46:37;99482.41;;;10.13
49557;BMP280;35462;45.048;7.666;2022-12-29T11:33:21;99445.94;;;10.97
49557;BMP280;35462;45.048;7.666;2022-12-29T11:48:39;99442.09;;;11.05
49557;BMP280;35462;45.048;7.666;2022-12-29T12:04:02;99418.97;;;11.16
49557;BMP280;35462;45.048;7.666;2022-12-29T12:19:30;99401.53;;;11.22
49557;BMP280;35462;45.048;7.666;2022-12-29T12:34:47;99387.03;;;11.37
49557;BMP280;35462;45.048;7.666;2022-12-29T13:21:13;99326.84;;;11.81
49557;BMP280;35462;45.048;7.666;2022-12-29T13:36:38;99305.53;;;11.85
49557;BMP280;35462;45.048;7.666;2022-12-29T13:52:08;99288.88;;;11.84
49557;BMP280;35462;45.048;7.666;2022-12-29T14:07:26;99305.84;;;11.90
49557;BMP280;35462;45.048;7.666;2022-12-29T14:23:12;99303.16;;;11.97
49557;BMP280;35462;45.048;7.666;2022-12-29T14:38:31;99312.22;;;12.00
49557;BMP280;35462;45.048;7.666;2022-12-29T14:53:49;99326.63;;;11.99
49557;BMP280;35462;45.048;7.666;2022-12-29T15:09:16;99325.13;;;11.98
49557;BMP280;35462;45.048;7.666;2022-12-29T15:24:41;99314.16;;;11.96
49557;BMP280;35462;45.048;7.666;2022-12-29T15:39:58;99310.09;;;11.88
49557;BMP280;35462;45.048;7.666;2022-12-29T16:10:42;99318.88;;;11.78
49557;BMP280;35462;45.048;7.666;2022-12-29T16:25:59;99328.84;;;11.64
49557;BMP280;35462;45.048;7.666;2022-12-29T16:41:30;99334.69;;;11.48
49557;BMP280;35462;45.048;7.666;2022-12-29T16:56:47;99325.25;;;11.40
49557;BMP280;35462;45.048;7.666;2022-12-29T17:12:05;99331.03;;;11.32
49557;BMP280;35462;45.048;7.666;2022-12-29T17:42:44;99334.13;;;11.20
49557;BMP280;35462;45.048;7.666;2022-12-29T17:58:00;99348.53;;;11.15
49557;BMP280;35462;45.048;7.666;2022-12-29T18:13:20;99336.88;;;11.09
49557;BMP280;35462;45.048;7.666;2022-12-29T18:28:37;99349.72;;;11.07
49557;BMP280;35462;45.048;7.666;2022-12-29T18:43:52;99341.03;;;11.03
49557;BMP280;35462;45.048;7.666;2022-12-29T18:59:08;99340.69;;;10.98
49557;BMP280;35462;45.048;7.666;2022-12-29T19:14:24;99312.69;;;11.00
49557;BMP280;35462;45.048;7.666;2022-12-29T19:29:40;99331.59;;;11.02
49557;BMP280;35462;45.048;7.666;2022-12-29T19:44:56;99326.31;;;10.95
49557;BMP280;35462;45.048;7.666;2022-12-29T20:00:12;99335.03;;;10.92
49557;BMP280;35462;45.048;7.666;2022-12-29T20:15:28;99325.97;;;10.90
49557;BMP280;35462;45.048;7.666;2022-12-29T20:30:44;99315.13;;;10.67
49557;BMP280;35462;45.048;7.666;2022-12-29T20:45:59;99317.78;;;10.60
49557;BMP280;35462;45.048;7.666;2022-12-29T21:01:18;99314.81;;;10.51
49557;BMP280;35462;45.048;7.666;2022-12-29T21:16:34;99335.63;;;10.42
49557;BMP280;35462;45.048;7.666;2022-12-29T21:31:50;99320.91;;;10.34
49557;BMP280;35462;45.048;7.666;2022-12-29T21:47:06;99304.69;;;10.18
49557;BMP280;35462;45.048;7.666;2022-12-29T22:02:24;99308.88;;;10.16
49557;BMP280;35462;45.048;7.666;2022-12-29T22:17:58;99308.91;;;10.02
49557;BMP280;35462;45.048;7.666;2022-12-29T22:33:15;99284.69;;;10.03
49557;BMP280;35462;45.048;7.666;2022-12-29T22:48:31;99286.25;;;9.97
49557;BMP280;35462;45.048;7.666;2022-12-29T23:03:47;99325.53;;;9.85
49557;BMP280;35462;45.048;7.666;2022-12-29T23:19:04;99310.44;;;9.82
49557;BMP280;35462;45.048;7.666;2022-12-29T23:34:19;99285.91;;;9.64
49557;BMP280;35462;45.048;7.666;2022-12-29T23:49:35;99272.69;;;9.64
